sensor_id;sensor_type;location;lat;lon;timestamp;P1;durP1;ratioP1;P2;durP2;ratioP2
8042;SDS011;4064;48.132;11.366;2022-11-15T00:01:46;7.20;;;5.53;;
8042;SDS011;4064;48.132;11.366;2022-11-15T00:04:11;6.40;;;5.83;;
8042;SDS011;4064;48.132;11.366;2022-11-15T00:06:37;6.50;;;4.97;;
8042;SDS011;4064;48.132;11.366;2022-11-15T00:09:03;6.57;;;5.97;;
8042;SDS011;4064;48.132;11.366;2022-11-15T00:11:28;6.30;;;5.67;;
8042;SDS011;4064;48.132;11.366;2022-11-15T00:13:55;5.57;;;5.03;;
8042;SDS011;4064;48.132;11.366;2022-11-15T00:16:21;7.68;;;5.18;;
8042;SDS011;4064;48.132;11.366;2022-11-15T00:18:47;8.07;;;5.63;;
8042;SDS011;4064;48.132;11.366;2022-11-15T00:21:13;6.70;;;6.10;;
8042;SDS011;4064;48.132;11.366;2022-11-15T00:23:39;5.43;;;4.93;;
8042;SDS011;4064;48.132;11.366;2022-11-15T00:26:06;7.30;;;6.55;;
8042;SDS011;4064;48.132;11.366;2022-11-15T00:28:32;6.28;;;5.55;;
8042;SDS011;4064;48.132;11.366;2022-11-15T00:31:01;6.33;;;5.83;;
8042;SDS011;4064;48.132;11.366;2022-11-15T00:33:28;6.05;;;5.45;;
8042;SDS011;4064;48.132;11.366;2022-11-15T00:36:07;6.50;;;5.05;;
8042;SDS011;4064;48.132;11.366;2022-11-15T00:38:35;7.65;;;5.90;;
8042;SDS011;4064;48.132;11.366;2022-11-15T00:41:02;7.00;;;5.78;;
8042;SDS011;4064;48.132;11.366;2022-11-15T00:43:29;5.30;;;4.80;;
8042;SDS011;4064;48.132;11.366;2022-11-15T00:45:55;5.83;;;5.33;;
8042;SDS011;4064;48.132;11.366;2022-11-15T00:48:21;5.73;;;5.23;;
8042;SDS011;4064;48.132;11.366;2022-11-15T00:50:47;5.80;;;5.10;;
8042;SDS011;4064;48.132;11.366;2022-11-15T00:53:13;6.13;;;4.90;;
8042;SDS011;4064;48.132;11.366;2022-11-15T00:55:39;5.97;;;5.37;;
8042;SDS011;4064;48.132;11.366;2022-11-15T00:58:04;4.90;;;4.50;;
8042;SDS011;4064;48.132;11.366;2022-11-15T01:00:30;4.47;;;3.93;;
8042;SDS011;4064;48.132;11.366;2022-11-15T01:02:56;5.03;;;4.63;;
8042;SDS011;4064;48.132;11.366;2022-11-15T01:05:21;4.70;;;4.27;;
8042;SDS011;4064;48.132;11.366;2022-11-15T01:07:47;6.00;;;4.70;;
8042;SDS011;4064;48.132;11.366;2022-11-15T01:10:17;7.13;;;4.97;;
8042;SDS011;4064;48.132;11.366;2022-11-15T01:12:43;5.40;;;4.90;;
8042;SDS011;4064;48.132;11.366;2022-11-15T01:15:08;5.37;;;4.40;;
8042;SDS011;4064;48.132;11.366;2022-11-15T01:17:34;5.20;;;4.70;;
8042;SDS011;4064;48.132;11.366;2022-11-15T01:20:00;4.20;;;3.90;;
8042;SDS011;4064;48.132;11.366;2022-11-15T01:22:25;6.30;;;4.50;;
8042;SDS011;4064;48.132;11.366;2022-11-15T01:24:51;6.20;;;4.00;;
8042;SDS011;4064;48.132;11.366;2022-11-15T01:27:16;5.80;;;5.20;;
8042;SDS011;4064;48.132;11.366;2022-11-15T01:29:42;6.00;;;5.20;;
8042;SDS011;4064;48.132;11.366;2022-11-15T01:32:08;4.83;;;4.23;;
8042;SDS011;4064;48.132;11.366;2022-11-15T01:34:33;5.23;;;4.47;;
8042;SDS011;4064;48.132;11.366;2022-11-15T01:36:59;4.30;;;3.90;;
8042;SDS011;4064;48.132;11.366;2022-11-15T01:39:24;4.33;;;3.93;;
8042;SDS011;4064;48.132;11.366;2022-11-15T01:41:51;4.78;;;4.22;;
8042;SDS011;4064;48.132;11.366;2022-11-15T01:50:17;5.15;;;3.97;;
8042;SDS011;4064;48.132;11.366;2022-11-15T01:52:37;4.13;;;3.72;;
8042;SDS011;4064;48.132;11.366;2022-11-15T01:57:36;3.92;;;3.53;;
8042;SDS011;4064;48.132;11.366;2022-11-15T02:00:03;5.50;;;4.60;;
8042;SDS011;4064;48.132;11.366;2022-11-15T02:02:31;4.90;;;4.50;;
8042;SDS011;4064;48.132;11.366;2022-11-15T02:04:58;4.75;;;4.25;;
8042;SDS011;4064;48.132;11.366;2022-11-15T02:07:23;5.67;;;4.43;;
8042;SDS011;4064;48.132;11.366;2022-11-15T02:09:50;3.85;;;3.55;;
8042;SDS011;4064;48.132;11.366;2022-11-15T02:12:18;4.85;;;4.35;;
8042;SDS011;4064;48.132;11.366;2022-11-15T02:14:46;5.07;;;4.32;;
8042;SDS011;4064;48.132;11.366;2022-11-15T02:37:07;4.10;;;3.72;;
8042;SDS011;4064;48.132;11.366;2022-11-15T02:42:36;5.00;;;4.60;;
8042;SDS011;4064;48.132;11.366;2022-11-15T02:45:28;3.92;;;3.60;;
8042;SDS011;4064;48.132;11.366;2022-11-15T02:48:01;4.43;;;4.05;;
8042;SDS011;4064;48.132;11.366;2022-11-15T02:50:30;5.25;;;4.47;;
8042;SDS011;4064;48.132;11.366;2022-11-15T02:52:57;4.10;;;3.45;;
8042;SDS011;4064;48.132;11.366;2022-11-15T02:55:36;5.00;;;3.67;;
8042;SDS011;4064;48.132;11.366;2022-11-15T02:58:19;4.07;;;3.65;;
8042;SDS011;4064;48.132;11.366;2022-11-15T03:01:42;5.25;;;4.65;;
8042;SDS011;4064;48.132;11.366;2022-11-15T03:03:59;4.78;;;4.05;;
8042;SDS011;4064;48.132;11.366;2022-11-15T03:06:49;5.25;;;4.22;;
8042;SDS011;4064;48.132;11.366;2022-11-15T03:12:15;4.65;;;4.10;;
8042;SDS011;4064;48.132;11.366;2022-11-15T03:14:53;3.90;;;3.38;;
8042;SDS011;4064;48.132;11.366;2022-11-15T03:17:33;4.50;;;4.00;;
8042;SDS011;4064;48.132;11.366;2022-11-15T03:20:05;4.45;;;4.05;;
8042;SDS011;4064;48.132;11.366;2022-11-15T03:22:36;4.60;;;3.90;;
8042;SDS011;4064;48.132;11.366;2022-11-15T03:25:07;5.15;;;4.22;;
8042;SDS011;4064;48.132;11.366;2022-11-15T03:27:36;4.38;;;4.05;;
8042;SDS011;4064;48.132;11.366;2022-11-15T03:30:06;4.13;;;3.80;;
8042;SDS011;4064;48.132;11.366;2022-11-15T03:32:49;3.85;;;3.42;;
8042;SDS011;4064;48.132;11.366;2022-11-15T03:35:19;4.72;;;4.20;;
8042;SDS011;4064;48.132;11.366;2022-11-15T03:40:36;4.55;;;4.15;;
8042;SDS011;4064;48.132;11.366;2022-11-15T03:43:15;4.97;;;4.40;;
8042;SDS011;4064;48.132;11.366;2022-11-15T03:46:10;5.47;;;3.97;;
8042;SDS011;4064;48.132;11.366;2022-11-15T03:48:41;3.97;;;3.53;;
8042;SDS011;4064;48.132;11.366;2022-11-15T03:51:14;7.50;;;3.33;;
8042;SDS011;4064;48.132;11.366;2022-11-15T03:53:41;5.55;;;3.95;;
8042;SDS011;4064;48.132;11.366;2022-11-15T03:56:07;4.38;;;3.88;;
8042;SDS011;4064;48.132;11.366;2022-11-15T03:58:32;4.63;;;4.23;;
8042;SDS011;4064;48.132;11.366;2022-11-15T04:00:58;5.00;;;4.20;;
8042;SDS011;4064;48.132;11.366;2022-11-15T04:03:24;4.10;;;3.72;;
8042;SDS011;4064;48.132;11.366;2022-11-15T04:05:50;4.23;;;3.57;;
8042;SDS011;4064;48.132;11.366;2022-11-15T04:08:15;3.73;;;3.43;;
8042;SDS011;4064;48.132;11.366;2022-11-15T04:10:41;4.67;;;3.90;;
8042;SDS011;4064;48.132;11.366;2022-11-15T04:13:06;4.83;;;3.83;;
8042;SDS011;4064;48.132;11.366;2022-11-15T04:15:32;3.93;;;3.50;;
8042;SDS011;4064;48.132;11.366;2022-11-15T04:17:58;6.47;;;4.30;;
8042;SDS011;4064;48.132;11.366;2022-11-15T04:20:25;5.57;;;4.90;;
8042;SDS011;4064;48.132;11.366;2022-11-15T04:26:01;6.53;;;4.40;;
8042;SDS011;4064;48.132;11.366;2022-11-15T04:28:32;4.22;;;3.75;;
8042;SDS011;4064;48.132;11.366;2022-11-15T04:30:58;4.57;;;4.17;;
8042;SDS011;4064;48.132;11.366;2022-11-15T04:33:23;4.67;;;4.17;;
8042;SDS011;4064;48.132;11.366;2022-11-15T04:35:49;5.67;;;5.07;;
8042;SDS011;4064;48.132;11.366;2022-11-15T04:38:34;5.95;;;4.65;;
8042;SDS011;4064;48.132;11.366;2022-11-15T04:41:01;6.13;;;4.53;;
8042;SDS011;4064;48.132;11.366;2022-11-15T04:43:27;5.70;;;4.33;;
8042;SDS011;4064;48.132;11.366;2022-11-15T04:45:53;5.82;;;4.90;;
8042;SDS011;4064;48.132;11.366;2022-11-15T04:48:18;5.97;;;5.37;;
8042;SDS011;4064;48.132;11.366;2022-11-15T04:50:44;6.73;;;5.23;;
8042;SDS011;4064;48.132;11.366;2022-11-15T04:53:12;5.93;;;5.32;;
8042;SDS011;4064;48.132;11.366;2022-11-15T04:55:38;5.80;;;4.97;;
8042;SDS011;4064;48.132;11.366;2022-11-15T04:58:03;6.00;;;4.70;;
8042;SDS011;4064;48.132;11.366;2022-11-15T05:00:29;4.70;;;4.30;;
8042;SDS011;4064;48.132;11.366;2022-11-15T05:02:55;4.50;;;3.97;;
8042;SDS011;4064;48.132;11.366;2022-11-15T05:05:40;5.18;;;4.60;;
8042;SDS011;4064;48.132;11.366;2022-11-15T05:08:05;6.17;;;5.13;;
8042;SDS011;4064;48.132;11.366;2022-11-15T05:10:31;5.40;;;4.83;;
8042;SDS011;4064;48.132;11.366;2022-11-15T05:12:57;6.47;;;4.90;;
8042;SDS011;4064;48.132;11.366;2022-11-15T05:15:23;7.47;;;4.87;;
8042;SDS011;4064;48.132;11.366;2022-11-15T05:17:48;5.33;;;4.67;;
8042;SDS011;4064;48.132;11.366;2022-11-15T05:20:14;5.40;;;4.80;;
8042;SDS011;4064;48.132;11.366;2022-11-15T05:22:40;7.10;;;5.30;;
8042;SDS011;4064;48.132;11.366;2022-11-15T05:25:06;7.20;;;5.60;;
8042;SDS011;4064;48.132;11.366;2022-11-15T05:27:33;6.65;;;5.32;;
8042;SDS011;4064;48.132;11.366;2022-11-15T05:29:59;9.90;;;7.40;;
8042;SDS011;4064;48.132;11.366;2022-11-15T05:32:25;8.87;;;6.20;;
8042;SDS011;4064;48.132;11.366;2022-11-15T05:34:51;7.00;;;6.20;;
8042;SDS011;4064;48.132;11.366;2022-11-15T05:37:17;8.23;;;5.97;;
8042;SDS011;4064;48.132;11.366;2022-11-15T05:39:43;6.35;;;5.68;;
8042;SDS011;4064;48.132;11.366;2022-11-15T05:42:09;5.90;;;5.30;;
8042;SDS011;4064;48.132;11.366;2022-11-15T05:44:37;6.40;;;5.18;;
8042;SDS011;4064;48.132;11.366;2022-11-15T05:47:07;7.95;;;6.65;;
8042;SDS011;4064;48.132;11.366;2022-11-15T05:49:36;8.15;;;6.00;;
8042;SDS011;4064;48.132;11.366;2022-11-15T05:52:05;7.72;;;5.28;;
8042;SDS011;4064;48.132;11.366;2022-11-15T05:54:35;6.30;;;4.88;;
8042;SDS011;4064;48.132;11.366;2022-11-15T05:57:02;5.93;;;4.80;;
8042;SDS011;4064;48.132;11.366;2022-11-15T05:59:30;10.20;;;5.85;;
8042;SDS011;4064;48.132;11.366;2022-11-15T06:01:57;7.57;;;6.13;;
8042;SDS011;4064;48.132;11.366;2022-11-15T06:04:23;4.35;;;4.00;;
8042;SDS011;4064;48.132;11.366;2022-11-15T06:06:49;4.97;;;4.47;;
8042;SDS011;4064;48.132;11.366;2022-11-15T06:09:14;5.00;;;4.20;;
8042;SDS011;4064;48.132;11.366;2022-11-15T06:11:40;5.30;;;4.80;;
8042;SDS011;4064;48.132;11.366;2022-11-15T06:14:06;4.17;;;3.80;;
8042;SDS011;4064;48.132;11.366;2022-11-15T06:16:31;5.33;;;4.83;;
8042;SDS011;4064;48.132;11.366;2022-11-15T06:18:57;4.80;;;4.40;;
8042;SDS011;4064;48.132;11.366;2022-11-15T06:21:23;4.90;;;4.33;;
8042;SDS011;4064;48.132;11.366;2022-11-15T06:23:49;6.77;;;5.20;;
8042;SDS011;4064;48.132;11.366;2022-11-15T06:26:15;6.43;;;5.20;;
8042;SDS011;4064;48.132;11.366;2022-11-15T06:28:40;5.40;;;4.73;;
8042;SDS011;4064;48.132;11.366;2022-11-15T06:31:08;8.40;;;5.40;;
8042;SDS011;4064;48.132;11.366;2022-11-15T06:33:39;7.13;;;5.53;;
8042;SDS011;4064;48.132;11.366;2022-11-15T06:36:09;6.10;;;5.55;;
8042;SDS011;4064;48.132;11.366;2022-11-15T06:38:39;6.82;;;5.30;;
8042;SDS011;4064;48.132;11.366;2022-11-15T06:41:05;7.30;;;5.72;;
8042;SDS011;4064;48.132;11.366;2022-11-15T06:43:33;10.75;;;6.35;;
8042;SDS011;4064;48.132;11.366;2022-11-15T06:46:00;7.63;;;6.88;;
8042;SDS011;4064;48.132;11.366;2022-11-15T06:48:27;7.80;;;6.80;;
8042;SDS011;4064;48.132;11.366;2022-11-15T06:50:53;11.32;;;6.13;;
8042;SDS011;4064;48.132;11.366;2022-11-15T06:53:21;7.78;;;6.95;;
8042;SDS011;4064;48.132;11.366;2022-11-15T06:55:47;6.88;;;6.18;;
8042;SDS011;4064;48.132;11.366;2022-11-15T06:58:12;8.57;;;6.20;;
8042;SDS011;4064;48.132;11.366;2022-11-15T07:00:38;9.27;;;7.07;;
8042;SDS011;4064;48.132;11.366;2022-11-15T07:03:04;7.13;;;6.30;;
8042;SDS011;4064;48.132;11.366;2022-11-15T07:05:30;6.93;;;6.30;;
8042;SDS011;4064;48.132;11.366;2022-11-15T07:07:56;6.73;;;6.03;;
8042;SDS011;4064;48.132;11.366;2022-11-15T07:10:23;8.05;;;7.30;;
8042;SDS011;4064;48.132;11.366;2022-11-15T07:12:50;9.15;;;5.47;;
8042;SDS011;4064;48.132;11.366;2022-11-15T07:15:17;5.72;;;5.15;;
8042;SDS011;4064;48.132;11.366;2022-11-15T07:17:43;7.38;;;5.70;;
8042;SDS011;4064;48.132;11.366;2022-11-15T07:20:09;11.13;;;6.27;;
8042;SDS011;4064;48.132;11.366;2022-11-15T07:22:36;7.63;;;6.32;;
8042;SDS011;4064;48.132;11.366;2022-11-15T07:25:02;5.70;;;5.20;;
8042;SDS011;4064;48.132;11.366;2022-11-15T07:27:28;6.93;;;4.60;;
8042;SDS011;4064;48.132;11.366;2022-11-15T07:29:53;7.00;;;5.23;;
8042;SDS011;4064;48.132;11.366;2022-11-15T07:32:19;7.00;;;6.07;;
8042;SDS011;4064;48.132;11.366;2022-11-15T07:34:45;8.13;;;5.37;;
8042;SDS011;4064;48.132;11.366;2022-11-15T07:37:11;8.17;;;6.17;;
8042;SDS011;4064;48.132;11.366;2022-11-15T07:39:37;9.65;;;6.80;;
8042;SDS011;4064;48.132;11.366;2022-11-15T07:42:03;8.93;;;6.43;;
8042;SDS011;4064;48.132;11.366;2022-11-15T07:44:47;7.35;;;6.63;;
8042;SDS011;4064;48.132;11.366;2022-11-15T07:47:13;8.40;;;6.03;;
8042;SDS011;4064;48.132;11.366;2022-11-15T07:49:39;6.50;;;5.90;;
8042;SDS011;4064;48.132;11.366;2022-11-15T07:52:05;7.77;;;6.03;;
8042;SDS011;4064;48.132;11.366;2022-11-15T07:54:30;6.50;;;5.80;;
8042;SDS011;4064;48.132;11.366;2022-11-15T07:56:56;8.43;;;6.77;;
8042;SDS011;4064;48.132;11.366;2022-11-15T07:59:22;7.27;;;5.57;;
8042;SDS011;4064;48.132;11.366;2022-11-15T08:01:48;7.13;;;5.80;;
8042;SDS011;4064;48.132;11.366;2022-11-15T08:04:13;5.07;;;4.63;;
8042;SDS011;4064;48.132;11.366;2022-11-15T08:06:39;7.03;;;5.37;;
8042;SDS011;4064;48.132;11.366;2022-11-15T08:09:05;6.70;;;5.23;;
8042;SDS011;4064;48.132;11.366;2022-11-15T08:11:31;8.90;;;5.60;;
8042;SDS011;4064;48.132;11.366;2022-11-15T08:13:58;5.27;;;4.80;;
8042;SDS011;4064;48.132;11.366;2022-11-15T08:16:24;5.43;;;4.38;;
8042;SDS011;4064;48.132;11.366;2022-11-15T08:18:49;5.03;;;4.33;;
8042;SDS011;4064;48.132;11.366;2022-11-15T08:21:18;4.77;;;4.07;;
8042;SDS011;4064;48.132;11.366;2022-11-15T08:23:45;5.68;;;4.30;;
8042;SDS011;4064;48.132;11.366;2022-11-15T08:26:11;4.85;;;3.90;;
8042;SDS011;4064;48.132;11.366;2022-11-15T08:28:37;5.37;;;4.07;;
8042;SDS011;4064;48.132;11.366;2022-11-15T08:31:03;5.80;;;5.07;;
8042;SDS011;4064;48.132;11.366;2022-11-15T08:33:30;5.10;;;4.33;;
8042;SDS011;4064;48.132;11.366;2022-11-15T08:35:57;6.33;;;4.83;;
8042;SDS011;4064;48.132;11.366;2022-11-15T08:38:23;5.33;;;4.37;;
8042;SDS011;4064;48.132;11.366;2022-11-15T08:40:52;5.10;;;4.20;;
8042;SDS011;4064;48.132;11.366;2022-11-15T08:43:23;4.80;;;4.30;;
8042;SDS011;4064;48.132;11.366;2022-11-15T08:45:49;4.43;;;4.03;;
8042;SDS011;4064;48.132;11.366;2022-11-15T08:48:14;4.80;;;3.80;;
8042;SDS011;4064;48.132;11.366;2022-11-15T08:50:40;6.17;;;3.73;;
8042;SDS011;4064;48.132;11.366;2022-11-15T08:53:08;5.90;;;4.00;;
8042;SDS011;4064;48.132;11.366;2022-11-15T08:55:38;6.50;;;4.03;;
8042;SDS011;4064;48.132;11.366;2022-11-15T08:58:04;4.53;;;3.17;;
8042;SDS011;4064;48.132;11.366;2022-11-15T09:00:31;5.03;;;3.30;;
8042;SDS011;4064;48.132;11.366;2022-11-15T09:02:57;4.53;;;3.30;;
8042;SDS011;4064;48.132;11.366;2022-11-15T09:05:24;4.00;;;3.67;;
8042;SDS011;4064;48.132;11.366;2022-11-15T09:07:53;7.20;;;3.83;;
8042;SDS011;4064;48.132;11.366;2022-11-15T09:10:20;7.40;;;3.37;;
8042;SDS011;4064;48.132;11.366;2022-11-15T09:12:46;4.67;;;3.40;;
8042;SDS011;4064;48.132;11.366;2022-11-15T09:15:15;5.23;;;4.10;;
8042;SDS011;4064;48.132;11.366;2022-11-15T09:17:41;4.30;;;3.83;;
8042;SDS011;4064;48.132;11.366;2022-11-15T09:20:07;3.10;;;2.80;;
8042;SDS011;4064;48.132;11.366;2022-11-15T09:22:34;5.00;;;3.70;;
8042;SDS011;4064;48.132;11.366;2022-11-15T09:25:04;4.10;;;3.27;;
8042;SDS011;4064;48.132;11.366;2022-11-15T09:27:30;3.60;;;3.10;;
8042;SDS011;4064;48.132;11.366;2022-11-15T09:29:56;3.63;;;3.10;;
8042;SDS011;4064;48.132;11.366;2022-11-15T09:32:22;6.43;;;4.30;;
8042;SDS011;4064;48.132;11.366;2022-11-15T09:34:51;6.63;;;4.10;;
8042;SDS011;4064;48.132;11.366;2022-11-15T09:37:17;5.27;;;4.77;;
8042;SDS011;4064;48.132;11.366;2022-11-15T09:39:43;5.27;;;4.27;;
8042;SDS011;4064;48.132;11.366;2022-11-15T09:50:40;8.33;;;3.93;;
8042;SDS011;4064;48.132;11.366;2022-11-15T09:53:12;3.60;;;3.17;;
8042;SDS011;4064;48.132;11.366;2022-11-15T09:55:55;3.13;;;2.83;;
8042;SDS011;4064;48.132;11.366;2022-11-15T09:58:51;4.10;;;3.23;;
8042;SDS011;4064;48.132;11.366;2022-11-15T10:01:16;3.53;;;2.77;;
8042;SDS011;4064;48.132;11.366;2022-11-15T10:03:47;5.03;;;3.70;;
8042;SDS011;4064;48.132;11.366;2022-11-15T10:06:21;3.77;;;2.67;;
8042;SDS011;4064;48.132;11.366;2022-11-15T10:08:51;4.50;;;3.20;;
8042;SDS011;4064;48.132;11.366;2022-11-15T10:11:30;5.40;;;3.13;;
8042;SDS011;4064;48.132;11.366;2022-11-15T10:14:01;8.60;;;4.20;;
8042;SDS011;4064;48.132;11.366;2022-11-15T10:19:28;9.40;;;4.67;;
8042;SDS011;4064;48.132;11.366;2022-11-15T10:24:57;6.57;;;3.93;;
8042;SDS011;4064;48.132;11.366;2022-11-15T10:27:28;6.73;;;3.70;;
8042;SDS011;4064;48.132;11.366;2022-11-15T10:29:54;7.00;;;3.10;;
8042;SDS011;4064;48.132;11.366;2022-11-15T10:32:20;15.53;;;3.60;;
8042;SDS011;4064;48.132;11.366;2022-11-15T10:34:47;3.77;;;3.40;;
8042;SDS011;4064;48.132;11.366;2022-11-15T10:37:14;4.20;;;3.60;;
8042;SDS011;4064;48.132;11.366;2022-11-15T10:40:14;5.07;;;4.03;;
8042;SDS011;4064;48.132;11.366;2022-11-15T10:43:12;9.17;;;4.23;;
8042;SDS011;4064;48.132;11.366;2022-11-15T10:45:43;11.70;;;4.30;;
8042;SDS011;4064;48.132;11.366;2022-11-15T10:50:38;7.87;;;5.10;;
8042;SDS011;4064;48.132;11.366;2022-11-15T10:55:50;9.20;;;5.70;;
8042;SDS011;4064;48.132;11.366;2022-11-15T10:58:29;7.50;;;5.83;;
8042;SDS011;4064;48.132;11.366;2022-11-15T11:01:09;12.50;;;6.03;;
8042;SDS011;4064;48.132;11.366;2022-11-15T11:03:36;7.50;;;6.13;;
8042;SDS011;4064;48.132;11.366;2022-11-15T11:08:40;8.00;;;5.90;;
8042;SDS011;4064;48.132;11.366;2022-11-15T11:11:18;9.43;;;6.10;;
8042;SDS011;4064;48.132;11.366;2022-11-15T11:13:44;10.67;;;6.70;;
8042;SDS011;4064;48.132;11.366;2022-11-15T11:24:12;12.60;;;6.70;;
8042;SDS011;4064;48.132;11.366;2022-11-15T11:27:03;9.97;;;7.30;;
8042;SDS011;4064;48.132;11.366;2022-11-15T11:37:52;10.53;;;7.20;;
8042;SDS011;4064;48.132;11.366;2022-11-15T11:40:29;12.27;;;7.60;;
8042;SDS011;4064;48.132;11.366;2022-11-15T11:43:04;7.30;;;6.60;;
8042;SDS011;4064;48.132;11.366;2022-11-15T11:49:10;8.10;;;6.17;;
8042;SDS011;4064;48.132;11.366;2022-11-15T11:51:47;7.07;;;5.60;;
8042;SDS011;4064;48.132;11.366;2022-11-15T11:54:29;6.83;;;4.77;;
8042;SDS011;4064;48.132;11.366;2022-11-15T11:57:05;9.43;;;5.23;;
8042;SDS011;4064;48.132;11.366;2022-11-15T12:02:34;3.50;;;2.40;;
8042;SDS011;4064;48.132;11.366;2022-11-15T12:05:11;4.00;;;2.57;;
8042;SDS011;4064;48.132;11.366;2022-11-15T12:07:45;2.90;;;1.83;;
8042;SDS011;4064;48.132;11.366;2022-11-15T12:10:23;5.27;;;2.20;;
8042;SDS011;4064;48.132;11.366;2022-11-15T12:12:55;6.20;;;2.80;;
8042;SDS011;4064;48.132;11.366;2022-11-15T12:15:50;4.40;;;2.00;;
8042;SDS011;4064;48.132;11.366;2022-11-15T12:18:18;6.37;;;2.10;;
8042;SDS011;4064;48.132;11.366;2022-11-15T12:20:51;3.00;;;1.60;;
8042;SDS011;4064;48.132;11.366;2022-11-15T12:23:26;1.63;;;1.50;;
8042;SDS011;4064;48.132;11.366;2022-11-15T12:25:56;2.63;;;1.60;;
8042;SDS011;4064;48.132;11.366;2022-11-15T12:31:01;2.90;;;1.60;;
8042;SDS011;4064;48.132;11.366;2022-11-15T12:33:49;3.73;;;1.53;;
8042;SDS011;4064;48.132;11.366;2022-11-15T12:41:25;2.93;;;2.43;;
8042;SDS011;4064;48.132;11.366;2022-11-15T12:43:55;2.60;;;1.70;;
8042;SDS011;4064;48.132;11.366;2022-11-15T12:49:00;1.60;;;1.50;;
8042;SDS011;4064;48.132;11.366;2022-11-15T13:17:45;2.13;;;1.93;;
8042;SDS011;4064;48.132;11.366;2022-11-15T13:20:20;2.47;;;1.70;;
8042;SDS011;4064;48.132;11.366;2022-11-15T13:30:39;1.87;;;1.23;;
8042;SDS011;4064;48.132;11.366;2022-11-15T13:33:17;2.23;;;2.03;;
8042;SDS011;4064;48.132;11.366;2022-11-15T13:35:46;3.37;;;1.87;;
8042;SDS011;4064;48.132;11.366;2022-11-15T13:38:25;2.17;;;1.97;;
8042;SDS011;4064;48.132;11.366;2022-11-15T13:40:52;2.20;;;1.77;;
8042;SDS011;4064;48.132;11.366;2022-11-15T13:46:04;1.97;;;1.80;;
8042;SDS011;4064;48.132;11.366;2022-11-15T13:48:42;2.80;;;1.97;;
8042;SDS011;4064;48.132;11.366;2022-11-15T13:54:02;2.13;;;1.80;;
8042;SDS011;4064;48.132;11.366;2022-11-15T13:56:38;6.50;;;1.70;;
8042;SDS011;4064;48.132;11.366;2022-11-15T14:01:54;2.23;;;1.53;;
8042;SDS011;4064;48.132;11.366;2022-11-15T14:04:22;2.30;;;2.00;;
8042;SDS011;4064;48.132;11.366;2022-11-15T14:06:55;2.60;;;2.30;;
8042;SDS011;4064;48.132;11.366;2022-11-15T14:11:59;3.90;;;1.73;;
8042;SDS011;4064;48.132;11.366;2022-11-15T14:14:26;2.67;;;1.80;;
8042;SDS011;4064;48.132;11.366;2022-11-15T14:16:55;6.87;;;1.80;;
8042;SDS011;4064;48.132;11.366;2022-11-15T14:22:10;3.30;;;2.10;;
8042;SDS011;4064;48.132;11.366;2022-11-15T14:24:38;3.90;;;2.60;;
8042;SDS011;4064;48.132;11.366;2022-11-15T14:30:00;5.00;;;2.90;;
8042;SDS011;4064;48.132;11.366;2022-11-15T14:32:30;3.87;;;3.47;;
8042;SDS011;4064;48.132;11.366;2022-11-15T14:35:13;7.33;;;3.90;;
8042;SDS011;4064;48.132;11.366;2022-11-15T14:37:44;3.93;;;3.63;;
8042;SDS011;4064;48.132;11.366;2022-11-15T14:40:14;4.10;;;3.77;;
8042;SDS011;4064;48.132;11.366;2022-11-15T14:42:43;5.37;;;4.23;;
8042;SDS011;4064;48.132;11.366;2022-11-15T14:45:18;4.60;;;4.20;;
8042;SDS011;4064;48.132;11.366;2022-11-15T14:47:45;7.37;;;5.03;;
8042;SDS011;4064;48.132;11.366;2022-11-15T14:50:15;5.40;;;4.90;;
8042;SDS011;4064;48.132;11.366;2022-11-15T14:52:43;7.83;;;5.70;;
8042;SDS011;4064;48.132;11.366;2022-11-15T14:58:05;6.33;;;5.70;;
8042;SDS011;4064;48.132;11.366;2022-11-15T15:00:35;12.43;;;6.20;;
8042;SDS011;4064;48.132;11.366;2022-11-15T15:03:19;6.90;;;6.00;;
8042;SDS011;4064;48.132;11.366;2022-11-15T15:05:45;8.10;;;5.90;;
8042;SDS011;4064;48.132;11.366;2022-11-15T15:08:11;10.80;;;7.03;;
8042;SDS011;4064;48.132;11.366;2022-11-15T15:10:43;8.67;;;7.00;;
8042;SDS011;4064;48.132;11.366;2022-11-15T15:13:20;7.00;;;6.30;;
8042;SDS011;4064;48.132;11.366;2022-11-15T15:15:48;7.67;;;6.90;;
8042;SDS011;4064;48.132;11.366;2022-11-15T15:18:15;8.40;;;6.50;;
8042;SDS011;4064;48.132;11.366;2022-11-15T15:20:41;6.73;;;6.10;;
8042;SDS011;4064;48.132;11.366;2022-11-15T15:23:18;10.00;;;7.30;;
8042;SDS011;4064;48.132;11.366;2022-11-15T15:25:45;6.77;;;5.83;;
8042;SDS011;4064;48.132;11.366;2022-11-15T15:28:12;6.60;;;5.90;;
8042;SDS011;4064;48.132;11.366;2022-11-15T15:30:38;9.40;;;6.80;;
8042;SDS011;4064;48.132;11.366;2022-11-15T15:33:04;10.27;;;7.47;;
8042;SDS011;4064;48.132;11.366;2022-11-15T15:35:30;9.73;;;7.63;;
8042;SDS011;4064;48.132;11.366;2022-11-15T15:37:57;9.93;;;7.90;;
8042;SDS011;4064;48.132;11.366;2022-11-15T15:40:24;15.57;;;9.90;;
8042;SDS011;4064;48.132;11.366;2022-11-15T15:42:50;15.97;;;11.73;;
8042;SDS011;4064;48.132;11.366;2022-11-15T15:45:16;11.17;;;9.90;;
8042;SDS011;4064;48.132;11.366;2022-11-15T15:47:43;12.20;;;9.13;;
8042;SDS011;4064;48.132;11.366;2022-11-15T15:50:25;14.00;;;11.00;;
8042;SDS011;4064;48.132;11.366;2022-11-15T15:52:54;17.13;;;10.30;;
8042;SDS011;4064;48.132;11.366;2022-11-15T15:55:23;14.87;;;11.43;;
8042;SDS011;4064;48.132;11.366;2022-11-15T15:57:49;14.47;;;9.87;;
8042;SDS011;4064;48.132;11.366;2022-11-15T16:00:15;11.83;;;9.87;;
8042;SDS011;4064;48.132;11.366;2022-11-15T16:02:42;14.03;;;10.13;;
8042;SDS011;4064;48.132;11.366;2022-11-15T16:05:08;14.27;;;10.47;;
8042;SDS011;4064;48.132;11.366;2022-11-15T16:07:35;11.57;;;9.27;;
8042;SDS011;4064;48.132;11.366;2022-11-15T16:10:01;13.47;;;9.50;;
8042;SDS011;4064;48.132;11.366;2022-11-15T16:12:38;10.53;;;9.30;;
8042;SDS011;4064;48.132;11.366;2022-11-15T16:15:03;17.77;;;13.50;;
8042;SDS011;4064;48.132;11.366;2022-11-15T16:17:33;17.70;;;13.20;;
8042;SDS011;4064;48.132;11.366;2022-11-15T16:20:01;29.37;;;23.20;;
8042;SDS011;4064;48.132;11.366;2022-11-15T16:22:27;15.60;;;12.77;;
8042;SDS011;4064;48.132;11.366;2022-11-15T16:24:54;13.17;;;10.43;;
8042;SDS011;4064;48.132;11.366;2022-11-15T16:27:20;12.40;;;10.40;;
8042;SDS011;4064;48.132;11.366;2022-11-15T16:29:47;17.53;;;8.77;;
8042;SDS011;4064;48.132;11.366;2022-11-15T16:32:13;15.00;;;10.20;;
8042;SDS011;4064;48.132;11.366;2022-11-15T16:34:39;14.43;;;11.53;;
8042;SDS011;4064;48.132;11.366;2022-11-15T16:37:05;14.20;;;12.00;;
8042;SDS011;4064;48.132;11.366;2022-11-15T16:39:33;17.80;;;13.33;;
8042;SDS011;4064;48.132;11.366;2022-11-15T16:41:59;12.80;;;11.30;;
8042;SDS011;4064;48.132;11.366;2022-11-15T16:44:25;14.50;;;12.87;;
8042;SDS011;4064;48.132;11.366;2022-11-15T16:46:51;15.97;;;13.97;;
8042;SDS011;4064;48.132;11.366;2022-11-15T16:49:17;16.23;;;14.23;;
8042;SDS011;4064;48.132;11.366;2022-11-15T16:51:45;16.43;;;13.73;;
8042;SDS011;4064;48.132;11.366;2022-11-15T16:54:11;20.37;;;15.23;;
8042;SDS011;4064;48.132;11.366;2022-11-15T16:56:38;28.27;;;18.00;;
8042;SDS011;4064;48.132;11.366;2022-11-15T16:59:04;33.57;;;22.80;;
8042;SDS011;4064;48.132;11.366;2022-11-15T17:01:31;29.60;;;20.73;;
8042;SDS011;4064;48.132;11.366;2022-11-15T17:04:10;27.00;;;19.60;;
8042;SDS011;4064;48.132;11.366;2022-11-15T17:06:41;29.60;;;20.17;;
8042;SDS011;4064;48.132;11.366;2022-11-15T17:09:20;21.30;;;17.87;;
8042;SDS011;4064;48.132;11.366;2022-11-15T17:11:50;24.40;;;19.40;;
8042;SDS011;4064;48.132;11.366;2022-11-15T17:14:17;24.83;;;18.73;;
8042;SDS011;4064;48.132;11.366;2022-11-15T17:16:45;26.50;;;18.93;;
8042;SDS011;4064;48.132;11.366;2022-11-15T17:19:16;18.10;;;16.20;;
8042;SDS011;4064;48.132;11.366;2022-11-15T17:21:44;21.17;;;16.17;;
8042;SDS011;4064;48.132;11.366;2022-11-15T17:24:10;16.73;;;15.03;;
8042;SDS011;4064;48.132;11.366;2022-11-15T17:26:37;16.00;;;14.30;;
8042;SDS011;4064;48.132;11.366;2022-11-15T17:29:04;20.03;;;14.30;;
8042;SDS011;4064;48.132;11.366;2022-11-15T17:31:32;17.23;;;14.47;;
8042;SDS011;4064;48.132;11.366;2022-11-15T17:34:02;17.57;;;13.43;;
8042;SDS011;4064;48.132;11.366;2022-11-15T17:36:29;16.73;;;13.77;;
8042;SDS011;4064;48.132;11.366;2022-11-15T17:38:55;15.57;;;14.10;;